Time;durP1;ratioP1;P1;durP2;ratioP2;P2;SDS_P1;SDS_P2;PMS_P1;PMS_P2;Temp;Humidity;BMP_temperature;BMP_pressure;BME280_temperature;BME280_humidity;BME280_pressure;Samples;Min_cycle;Max_cycle;Signal;HPM_P1;HPM_P2
2022/11/06 00:01:30;;;;;;;21.35;12.40;;;;;;;14.09;44.81;93418.81;5040663;28;20021;-77
2022/11/06 00:03:56;;;;;;;23.20;12.55;;;;;;;14.00;44.94;93409.41;5037852;28;20039;-76
2022/11/06 00:09:09;;;;;;;20.90;12.00;;;;;;;14.02;44.73;93404.50;5039346;28;20180;-77
2022/11/06 00:11:34;;;;;;;22.27;12.88;;;;;;;14.04;44.65;93399.56;5021774;28;20120;-76
2022/11/06 00:14:00;;;;;;;24.92;13.23;;;;;;;14.05;44.88;93401.91;5037534;28;20029;-76
2022/11/06 00:16:26;;;;;;;34.58;16.15;;;;;;;14.12;44.91;93409.34;5039816;28;20140;-76
2022/11/06 00:18:52;;;;;;;20.98;12.73;;;;;;;14.06;44.75;93400.03;5036746;28;20117;-76
2022/11/06 00:21:21;;;;;;;19.42;12.90;;;;;;;14.04;44.69;93408.38;5039264;28;20037;-77
2022/11/06 00:23:46;;;;;;;21.33;13.13;;;;;;;13.93;45.05;93395.88;5037467;28;20032;-77
2022/11/06 00:26:15;;;;;;;25.05;12.38;;;;;;;13.99;45.12;93402.50;5039120;28;20029;-76
2022/11/06 00:28:41;;;;;;;17.80;11.57;;;;;;;13.99;44.80;93402.50;5037300;28;20522;-76
2022/11/06 00:31:10;;;;;;;23.90;14.05;;;;;;;13.79;44.97;93379.47;5022002;28;20119;-77
2022/11/06 00:33:36;;;;;;;21.20;13.35;;;;;;;13.98;44.73;93392.97;5019955;28;20025;-76
2022/11/06 00:36:07;;;;;;;22.05;13.35;;;;;;;13.90;44.89;93377.84;5038840;28;20051;-77
2022/11/06 00:38:33;;;;;;;24.98;12.43;;;;;;;13.77;44.71;93355.75;5039042;28;20116;-76
2022/11/06 00:41:06;;;;;;;20.17;12.48;;;;;;;13.91;44.74;93377.50;5038058;28;20456;-76
2022/11/06 00:43:32;;;;;;;20.00;12.05;;;;;;;13.89;44.71;93386.97;5039040;28;20021;-76
2022/11/06 00:46:10;;;;;;;17.77;11.75;;;;;;;13.98;44.89;93407.09;5036506;28;20612;-76
2022/11/06 00:48:36;;;;;;;20.95;12.60;;;;;;;13.95;44.86;93401.66;5021934;28;20063;-76
2022/11/06 00:51:03;;;;;;;22.73;13.95;;;;;;;13.92;44.94;93399.66;5036890;28;20031;-76
2022/11/06 00:53:29;;;;;;;27.40;13.07;;;;;;;13.91;45.07;93398.13;5037852;28;20025;-77
2022/11/06 00:55:54;;;;;;;22.40;12.23;;;;;;;13.75;45.55;93374.81;5037429;28;20048;-77
2022/11/06 00:58:19;;;;;;;21.50;12.38;;;;;;;13.94;45.24;93394.75;5038454;28;20043;-77
2022/11/06 01:00:45;;;;;;;20.90;12.65;;;;;;;13.75;45.64;93356.09;5038357;28;20020;-76
2022/11/06 01:03:10;;;;;;;21.02;13.48;;;;;;;13.98;45.35;93387.59;5038393;28;20060;-77
2022/11/06 01:05:36;;;;;;;23.40;12.10;;;;;;;13.97;45.27;93386.84;5036667;28;20017;-77
2022/11/06 01:08:01;;;;;;;21.30;12.07;;;;;;;13.98;45.14;93384.94;5038581;28;20599;-76
2022/11/06 01:10:26;;;;;;;21.25;13.88;;;;;;;13.85;45.15;93372.75;5039148;28;20020;-78
2022/11/06 01:12:52;;;;;;;20.10;12.77;;;;;;;13.67;45.23;93354.38;5020487;28;20552;-77
2022/11/06 01:15:17;;;;;;;20.92;11.65;;;;;;;13.64;45.20;93355.03;5036553;28;20464;-76
2022/11/06 01:17:42;;;;;;;23.80;13.00;;;;;;;13.67;45.68;93364.28;5038446;28;20416;-75
2022/11/06 01:20:08;;;;;;;22.80;13.15;;;;;;;13.59;45.70;93355.28;5036882;28;20396;-76
2022/11/06 01:22:34;;;;;;;23.05;12.65;;;;;;;13.65;45.87;93377.19;5038301;28;20025;-76
2022/11/06 01:24:59;;;;;;;23.55;12.70;;;;;;;13.58;46.14;93360.97;5037824;28;20527;-76
2022/11/06 01:27:24;;;;;;;23.38;12.93;;;;;;;13.12;46.69;93317.00;5037830;28;20451;-77
2022/11/06 01:29:50;;;;;;;19.80;12.00;;;;;;;13.40;46.04;93338.38;5019472;28;21125;-77
2022/11/06 01:32:15;;;;;;;27.15;13.10;;;;;;;13.39;46.27;93334.13;5037448;28;20489;-76
2022/11/06 01:34:41;;;;;;;20.38;11.52;;;;;;;13.46;46.09;93353.00;5020554;28;20033;-76
2022/11/06 01:37:06;;;;;;;23.38;13.60;;;;;;;13.36;46.26;93340.13;5038513;28;20059;-76
2022/11/06 01:39:31;;;;;;;19.30;13.23;;;;;;;13.38;46.31;93337.91;5037089;28;20052;-76
2022/11/06 01:41:57;;;;;;;22.77;13.27;;;;;;;13.56;46.23;93358.63;5038639;28;20035;-76
2022/11/06 01:44:31;;;;;;;28.42;15.65;;;;;;;13.37;46.67;93357.72;5036160;28;20748;-76
2022/11/06 01:46:58;;;;;;;27.27;14.82;;;;;;;13.43;46.65;93362.50;5020124;28;20064;-76
2022/11/06 01:49:24;;;;;;;23.38;15.40;;;;;;;13.40;46.84;93359.72;5036021;28;20029;-76
2022/11/06 01:51:57;;;;;;;27.70;15.02;;;;;;;13.39;46.78;93361.63;5017780;28;20023;-76
2022/11/06 01:54:26;;;;;;;24.48;14.90;;;;;;;13.01;47.21;93326.59;5037899;28;20485;-77
2022/11/06 01:56:55;;;;;;;26.50;14.70;;;;;;;13.15;47.24;93351.03;5036840;28;20052;-77
2022/11/06 01:59:26;;;;;;;21.65;13.93;;;;;;;12.93;47.72;93330.19;5037076;28;20024;-75
2022/11/06 02:01:52;;;;;;;23.75;13.88;;;;;;;12.92;47.70;93325.97;5035695;28;20033;-76
2022/11/06 02:04:27;;;;;;;23.95;14.38;;;;;;;12.96;48.11;93356.22;5037360;28;20378;-76
2022/11/06 02:06:52;;;;;;;28.48;15.77;;;;;;;12.61;48.11;93291.94;5037256;28;20516;-76
2022/11/06 02:09:18;;;;;;;25.77;14.27;;;;;;;12.96;48.04;93354.31;5037623;28;20031;-76
2022/11/06 02:12:01;;;;;;;26.13;15.20;;;;;;;12.89;47.94;93328.22;5035417;28;20016;-76
2022/11/06 02:14:49;;;;;;;23.75;13.77;;;;;;;12.95;48.25;93354.66;5038377;28;20550;-77
2022/11/06 02:17:22;;;;;;;25.98;13.38;;;;;;;12.79;48.34;93328.69;5037227;28;20037;-77
2022/11/06 02:20:00;;;;;;;19.98;12.73;;;;;;;12.96;48.27;93356.97;5019104;28;20072;-77
2022/11/06 02:23:02;;;;;;;20.70;12.25;;;;;;;12.87;48.61;93353.66;5038490;28;20052;-76
2022/11/06 02:25:46;;;;;;;15.13;7.93;;;;;;;12.44;49.65;93335.63;5020062;28;20033;-76
2022/11/06 02:28:24;;;;;;;16.73;7.80;;;;;;;12.22;50.60;93334.22;5037170;28;20029;-76
2022/11/06 02:30:52;;;;;;;9.93;6.30;;;;;;;11.81;51.30;93329.84;5037856;28;20568;-76
2022/11/06 02:33:26;;;;;;;9.77;6.68;;;;;;;11.39;51.82;93307.13;5036063;28;20025;-76
2022/11/06 02:35:59;;;;;;;11.73;6.20;;;;;;;11.08;53.54;93308.38;5036512;28;20051;-77
2022/11/06 02:38:37;;;;;;;12.98;7.20;;;;;;;11.06;54.00;93345.16;5017706;28;20020;-76
2022/11/06 02:41:07;;;;;;;14.88;8.27;;;;;;;10.87;54.39;93328.91;5037712;28;20597;-76
2022/11/06 02:43:43;;;;;;;14.43;6.55;;;;;;;10.77;54.58;93331.16;5037462;28;20416;-75
2022/11/06 02:46:17;;;;;;;8.70;5.35;;;;;;;10.58;54.20;93305.03;5036767;28;20521;-75
2022/11/06 02:49:07;;;;;;;12.60;5.03;;;;;;;10.61;52.64;93321.13;5038346;28;20367;-75
2022/11/06 02:51:38;;;;;;;7.35;4.60;;;;;;;10.98;52.83;93356.66;5035441;28;20033;-77
2022/11/06 02:54:05;;;;;;;5.03;3.95;;;;;;;11.05;50.98;93330.28;5037084;28;20031;-77
2022/11/06 02:56:38;;;;;;;8.70;4.38;;;;;;;11.53;49.58;93350.22;5019617;28;20544;-77
2022/11/06 02:59:13;;;;;;;6.55;3.80;;;;;;;11.58;49.51;93342.03;5036645;28;20028;-76
2022/11/06 03:01:49;;;;;;;6.40;3.53;;;;;;;11.96;48.11;93358.50;5040516;28;20032;-77
2022/11/06 03:04:19;;;;;;;7.60;4.15;;;;;;;11.91;47.59;93348.06;5040338;28;20025;-76
2022/11/06 03:06:51;;;;;;;7.85;3.33;;;;;;;11.94;47.52;93350.06;5023332;28;20020;-76
2022/11/06 03:09:20;;;;;;;6.70;3.35;;;;;;;12.14;47.49;93366.28;5038828;28;20029;-76
2022/11/06 03:11:52;;;;;;;6.60;3.28;;;;;;;12.20;47.29;93362.28;5022633;28;20036;-76
2022/11/06 03:14:51;;;;;;;12.68;3.40;;;;;;;12.19;47.67;93352.72;5041423;28;20033;-76
2022/11/06 03:17:44;;;;;;;7.70;3.60;;;;;;;12.33;47.66;93343.28;5039160;28;20040;-77
2022/11/06 03:20:19;;;;;;;10.65;3.13;;;;;;;12.44;47.38;93370.28;5021075;28;20037;-77
2022/11/06 03:23:01;;;;;;;8.55;3.30;;;;;;;12.34;47.38;93363.50;5041307;28;20017;-76
2022/11/06 03:25:44;;;;;;;7.32;3.35;;;;;;;12.39;47.10;93371.28;5039772;28;20021;-76
2022/11/06 03:28:33;;;;;;;7.05;2.78;;;;;;;12.33;46.53;93345.16;5021691;28;20484;-77
2022/11/06 03:31:01;;;;;;;5.90;3.13;;;;;;;12.40;46.58;93348.84;5022385;28;20507;-76
2022/11/06 03:33:36;;;;;;;8.35;4.00;;;;;;;12.35;48.16;93364.28;5040054;28;20764;-76
2022/11/06 03:36:12;;;;;;;10.85;5.43;;;;;;;11.92;51.09;93362.97;5040139;28;20052;-78
2022/11/06 03:38:47;;;;;;;9.32;5.57;;;;;;;11.95;52.30;93380.16;5039693;28;20112;-76
2022/11/06 03:41:22;;;;;;;11.50;5.93;;;;;;;12.00;52.78;93390.59;5039355;28;20029;-77
2022/11/06 03:43:51;;;;;;;9.35;5.10;;;;;;;12.06;52.77;93397.28;5040006;28;20032;-76
2022/11/06 03:46:23;;;;;;;12.60;5.97;;;;;;;11.98;53.85;93384.81;5039297;28;20029;-76
2022/11/06 03:48:53;;;;;;;16.02;6.80;;;;;;;11.85;54.35;93383.25;5039717;28;20036;-77
2022/11/06 03:51:32;;;;;;;9.85;5.22;;;;;;;11.84;54.46;93357.72;5041353;28;20025;-77
2022/11/06 03:54:09;;;;;;;14.18;6.25;;;;;;;12.22;53.95;93386.75;5021941;28;20032;-75
2022/11/06 03:56:40;;;;;;;9.40;6.30;;;;;;;12.10;54.73;93384.06;5039677;28;20025;-76
2022/11/06 03:59:08;;;;;;;17.55;8.38;;;;;;;11.72;56.05;93355.81;5040190;28;20642;-76
2022/11/06 04:01:38;;;;;;;11.13;7.47;;;;;;;11.72;56.51;93363.03;5037899;28;20025;-76
2022/11/06 04:04:06;;;;;;;7.68;6.05;;;;;;;11.53;57.79;93387.53;5039730;28;20249;-76
2022/11/06 04:06:38;;;;;;;10.38;7.50;;;;;;;11.23;58.48;93362.09;5040863;28;20039;-76
2022/11/06 04:14:39;;;;;;;11.57;9.35;;;;;;;10.21;62.75;93376.56;5040296;28;20059;-76
2022/11/06 04:17:09;;;;;;;15.43;7.72;;;;;;;10.17;63.91;93404.84;5038395;28;20183;-76
2022/11/06 04:19:35;;;;;;;12.40;8.07;;;;;;;10.06;64.67;93408.97;5021632;28;20416;-76
2022/11/06 04:22:01;;;;;;;14.90;7.13;;;;;;;9.98;65.28;93407.13;5039203;28;20147;-75
2022/11/06 04:27:30;;;;;;;10.27;7.28;;;;;;;9.95;66.35;93410.44;5039040;28;20043;-75
2022/11/06 04:29:59;;;;;;;14.07;7.30;;;;;;;9.98;66.77;93409.00;5038413;28;20029;-77
2022/11/06 04:32:40;;;;;;;13.15;7.43;;;;;;;10.38;65.33;93406.81;5019680;28;20028;-76
2022/11/06 04:35:30;;;;;;;13.32;6.95;;;;;;;10.43;64.87;93411.94;5020665;28;20033;-75
2022/11/06 04:38:01;;;;;;;11.40;6.78;;;;;;;10.80;63.82;93415.66;5038357;28;20527;-76
2022/11/06 04:40:47;;;;;;;12.57;6.88;;;;;;;11.06;61.90;93387.75;5037692;28;20032;-76
2022/11/06 04:43:29;;;;;;;11.73;7.03;;;;;;;11.38;60.38;93417.38;5039211;28;20079;-76
2022/11/06 04:45:58;;;;;;;10.73;6.63;;;;;;;11.64;59.48;93423.25;5038301;28;20384;-76
2022/11/06 04:48:24;;;;;;;10.80;6.78;;;;;;;11.90;58.13;93413.13;5039419;28;20121;-77
2022/11/06 04:50:54;;;;;;;12.05;5.90;;;;;;;12.18;57.33;93417.81;5021106;28;20993;-76
2022/11/06 04:53:21;;;;;;;16.20;6.72;;;;;;;12.35;56.50;93428.28;5038313;28;20017;-77
2022/11/06 04:55:55;;;;;;;9.23;6.50;;;;;;;12.41;55.60;93411.75;5038671;28;20028;-76
2022/11/06 04:58:20;;;;;;;9.57;6.57;;;;;;;12.56;55.07;93407.63;5038031;28;20025;-77
2022/11/06 05:00:48;;;;;;;10.45;7.13;;;;;;;12.68;54.73;93402.28;5038856;28;20029;-76
2022/11/06 05:03:15;;;;;;;10.48;6.65;;;;;;;12.73;54.61;93407.41;5018269;28;20016;-77
2022/11/06 05:05:41;;;;;;;11.52;6.80;;;;;;;12.95;54.63;93429.41;5038698;28;20028;-76
2022/11/06 05:08:13;;;;;;;13.15;6.93;;;;;;;13.10;54.04;93440.16;5019804;28;20043;-76
2022/11/06 05:10:38;;;;;;;11.90;6.20;;;;;;;13.13;53.95;93434.13;5037868;28;20401;-76
2022/11/06 05:13:03;;;;;;;14.00;5.95;;;;;;;13.23;53.75;93457.69;5039232;28;20032;-76
2022/11/06 05:15:29;;;;;;;10.55;6.40;;;;;;;13.31;53.59;93454.13;5037063;28;20024;-77
2022/11/06 05:17:56;;;;;;;6.90;5.20;;;;;;;13.29;53.49;93453.69;5038421;28;20064;-75
2022/11/06 05:20:22;;;;;;;13.18;7.18;;;;;;;13.45;53.40;93468.97;5035719;28;20032;-76
2022/11/06 05:23:20;;;;;;;14.65;6.50;;;;;;;13.35;53.07;93446.19;5021100;28;20052;-76
2022/11/06 05:25:39;;;;;;;13.77;6.32;;;;;;;13.31;53.47;93464.00;5032510;28;20084;-77
2022/11/06 05:28:06;;;;;;;11.20;5.97;;;;;;;13.21;53.58;93446.56;5037769;28;20103;-76
2022/11/06 05:30:33;;;;;;;11.90;7.65;;;;;;;13.45;53.57;93480.44;5037467;28;20362;-77
2022/11/06 05:32:59;;;;;;;11.13;6.53;;;;;;;13.52;53.40;93482.53;5037782;28;20024;-76
2022/11/06 05:35:24;;;;;;;12.85;6.95;;;;;;;13.51;53.29;93468.41;5037925;28;20113;-76
2022/11/06 05:37:50;;;;;;;13.20;7.05;;;;;;;13.60;53.00;93481.66;5036762;28;20026;-77
2022/11/06 05:40:15;;;;;;;12.73;6.70;;;;;;;13.20;53.52;93415.63;5038294;28;20032;-76
2022/11/06 05:42:42;;;;;;;10.98;6.60;;;;;;;13.54;53.41;93467.75;5036325;28;20025;-76
2022/11/06 05:45:08;;;;;;;15.80;7.95;;;;;;;13.53;53.82;93478.75;5037964;28;20144;-77
2022/11/06 05:47:34;;;;;;;10.63;7.13;;;;;;;13.64;53.66;93485.97;5035304;28;20040;-76
2022/11/06 05:49:59;;;;;;;13.35;6.97;;;;;;;13.58;53.91;93484.66;5037412;28;20029;-77
2022/11/06 05:52:25;;;;;;;12.32;7.70;;;;;;;13.57;54.22;93499.13;5019633;28;20040;-77
2022/11/06 05:54:50;;;;;;;11.48;8.27;;;;;;;13.53;54.31;93494.78;5037324;28;21678;-76
2022/11/06 05:57:16;;;;;;;11.02;7.28;;;;;;;13.48;54.24;93482.44;5035669;28;20532;-77
2022/11/06 05:59:41;;;;;;;12.30;7.28;;;;;;;13.61;54.26;93500.03;5035493;28;20484;-77
2022/11/06 06:02:07;;;;;;;12.52;7.53;;;;;;;13.52;54.61;93510.03;5038415;28;20075;-77
2022/11/06 06:04:32;;;;;;;12.38;7.95;;;;;;;13.52;54.88;93498.56;5034305;28;20063;-76
2022/11/06 06:06:57;;;;;;;10.27;7.20;;;;;;;13.33;54.73;93467.13;5036228;28;20059;-76
2022/11/06 06:09:23;;;;;;;11.77;6.90;;;;;;;13.57;54.44;93499.13;5033455;28;20112;-76
2022/11/06 06:11:52;;;;;;;12.80;8.63;;;;;;;13.15;55.40;93477.28;5034548;28;20159;-77
2022/11/06 06:14:19;;;;;;;11.80;7.78;;;;;;;13.19;56.15;93515.56;5031078;28;20033;-76
2022/11/06 06:16:45;;;;;;;12.10;8.50;;;;;;;12.73;57.59;93508.78;5034341;28;20564;-75
2022/11/06 06:19:11;;;;;;;12.13;8.00;;;;;;;12.24;59.59;93491.94;5036020;28;20211;-75
2022/11/06 06:21:36;;;;;;;13.80;8.98;;;;;;;11.91;61.46;93505.28;5034989;28;20491;-76
2022/11/06 06:24:03;;;;;;;14.68;8.85;;;;;;;11.83;62.62;93524.03;5035301;28;20032;-76
2022/11/06 06:26:29;;;;;;;11.95;8.30;;;;;;;11.64;63.84;93527.16;5033375;28;20032;-75
2022/11/06 06:28:54;;;;;;;16.05;8.75;;;;;;;11.53;64.13;93518.00;5033920;28;20029;-75
2022/11/06 06:31:19;;;;;;;14.32;8.23;;;;;;;11.38;65.11;93513.25;5034486;28;20041;-76
2022/11/06 06:33:45;;;;;;;14.05;8.07;;;;;;;11.26;66.10;93537.13;5016012;28;20029;-76
2022/11/06 06:36:10;;;;;;;18.10;9.88;;;;;;;11.20;66.25;93517.13;5037575;28;20123;-76
2022/11/06 06:38:36;;;;;;;21.17;10.35;;;;;;;11.11;67.15;93546.44;5025645;28;20047;-76
2022/11/06 06:41:02;;;;;;;17.20;9.18;;;;;;;10.96;67.55;93533.69;5037130;28;20033;-76
2022/11/06 06:43:28;;;;;;;19.65;10.77;;;;;;;10.62;68.74;93516.81;5027051;28;20056;-75
2022/11/06 06:45:57;;;;;;;14.02;8.88;;;;;;;10.73;69.05;93536.63;5032580;28;20115;-76
2022/11/06 06:48:22;;;;;;;13.40;9.80;;;;;;;10.67;69.22;93531.81;5017715;28;20028;-75
2022/11/06 06:50:47;;;;;;;19.80;9.55;;;;;;;10.53;70.12;93534.69;5033013;28;20029;-76
2022/11/06 06:53:13;;;;;;;14.63;8.30;;;;;;;10.57;70.45;93545.44;5016724;28;20445;-76
2022/11/06 06:55:39;;;;;;;16.70;9.27;;;;;;;10.48;70.76;93536.72;5034212;28;20404;-76
2022/11/06 06:58:04;;;;;;;15.52;9.60;;;;;;;10.42;71.28;93551.28;5036835;28;20021;-75
2022/11/06 07:00:30;;;;;;;25.02;10.73;;;;;;;10.21;71.86;93536.00;5035659;28;20052;-76
2022/11/06 07:02:55;;;;;;;17.38;10.88;;;;;;;10.50;71.33;93563.78;5034957;28;20465;-76
2022/11/06 07:05:21;;;;;;;21.23;11.25;;;;;;;10.58;70.48;93568.28;5034646;28;20086;-76
2022/11/06 07:07:47;;;;;;;18.60;10.68;;;;;;;10.41;70.64;93547.09;5033078;28;20055;-76
2022/11/06 07:10:12;;;;;;;16.75;11.23;;;;;;;10.49;70.86;93567.53;5035445;28;20024;-75
2022/11/06 07:12:37;;;;;;;16.92;10.20;;;;;;;10.33;71.43;93546.75;5038089;28;20646;-76
2022/11/06 07:15:03;;;;;;;18.98;11.02;;;;;;;10.51;71.48;93581.31;5038561;28;20029;-75
2022/11/06 07:17:29;;;;;;;21.20;11.57;;;;;;;10.47;71.65;93580.34;5025672;28;20065;-75
2022/11/06 07:19:54;;;;;;;16.80;10.88;;;;;;;10.34;71.80;93584.75;5034341;28;20453;-76
2022/11/06 07:22:19;;;;;;;22.35;10.98;;;;;;;10.22;71.98;93568.69;5037447;28;20071;-75
2022/11/06 07:24:45;;;;;;;17.63;10.45;;;;;;;10.25;71.60;93566.16;5032708;28;20504;-75
2022/11/06 07:27:10;;;;;;;13.98;10.05;;;;;;;10.27;71.51;93565.84;5038506;28;20090;-75
2022/11/06 07:29:35;;;;;;;19.77;12.65;;;;;;;10.38;71.39;93583.03;5035084;28;20127;-76
2022/11/06 07:32:01;;;;;;;15.32;11.05;;;;;;;10.43;71.68;93584.75;5038465;28;20489;-76
2022/11/06 07:34:26;;;;;;;19.77;10.30;;;;;;;10.38;70.94;93582.25;5033819;28;20033;-75
2022/11/06 07:36:51;;;;;;;16.15;10.85;;;;;;;10.17;71.26;93561.63;5028300;28;20037;-75
2022/11/06 07:39:17;;;;;;;17.80;10.70;;;;;;;10.35;70.91;93590.84;5028701;28;20037;-75
2022/11/06 07:41:42;;;;;;;16.73;9.48;;;;;;;10.25;70.04;93566.16;5034481;28;20028;-75
2022/11/06 07:44:08;;;;;;;17.60;10.75;;;;;;;10.27;69.96;93566.63;5033896;28;20311;-75
2022/11/06 07:46:33;;;;;;;14.27;9.82;;;;;;;10.44;70.05;93588.97;5032636;28;20027;-76
2022/11/06 07:48:58;;;;;;;20.67;11.10;;;;;;;10.25;70.19;93568.81;5032838;28;20078;-76
2022/11/06 07:51:24;;;;;;;19.73;10.15;;;;;;;10.54;69.95;93596.63;5029373;28;20074;-75
2022/11/06 07:53:49;;;;;;;16.30;10.65;;;;;;;10.57;69.81;93596.75;5027919;28;20770;-77
2022/11/06 07:56:15;;;;;;;26.38;10.80;;;;;;;10.08;69.84;93526.34;5010919;28;20128;-76
2022/11/06 07:58:40;;;;;;;19.65;10.73;;;;;;;10.60;69.98;93606.00;5029694;28;20625;-77
2022/11/06 08:01:14;;;;;;;18.58;10.05;;;;;;;10.39;70.30;93575.84;5026921;28;20381;-77
2022/11/06 08:03:39;;;;;;;18.73;10.60;;;;;;;10.59;70.25;93593.78;5030069;28;20057;-77
2022/11/06 08:06:05;;;;;;;22.25;12.32;;;;;;;10.54;70.31;93588.63;5028919;28;20536;-76
2022/11/06 08:08:31;;;;;;;21.20;11.57;;;;;;;10.76;70.26;93601.69;5011075;28;20945;-77
2022/11/06 08:11:08;;;;;;;20.90;12.18;;;;;;;10.73;70.16;93599.69;5012518;28;20426;-77
2022/11/06 08:13:34;;;;;;;22.92;12.80;;;;;;;10.82;70.04;93616.38;5032576;28;20396;-76
2022/11/06 08:16:07;;;;;;;19.95;10.98;;;;;;;10.76;70.02;93592.97;5028360;28;20042;-76
2022/11/06 08:18:33;;;;;;;16.63;11.40;;;;;;;10.83;69.57;93595.88;5031152;28;20467;-77
2022/11/06 08:20:58;;;;;;;23.90;12.30;;;;;;;10.83;69.78;93579.94;5032603;28;20032;-77
2022/11/06 08:23:24;;;;;;;22.58;12.38;;;;;;;10.98;70.26;93609.44;5026112;28;20120;-76
2022/11/06 08:25:54;;;;;;;22.25;11.35;;;;;;;10.88;70.44;93590.38;5030155;28;20025;-76
2022/11/06 08:28:19;;;;;;;26.60;13.05;;;;;;;11.00;70.72;93609.88;5033327;28;20036;-76
2022/11/06 08:30:45;;;;;;;19.40;12.63;;;;;;;10.84;70.47;93579.63;5032594;28;20400;-76
2022/11/06 08:33:10;;;;;;;24.90;13.27;;;;;;;11.02;70.95;93613.03;5035455;28;20519;-76
2022/11/06 08:35:36;;;;;;;17.40;11.00;;;;;;;10.84;71.11;93613.41;5032613;28;20778;-77
2022/11/06 08:38:02;;;;;;;19.85;12.38;;;;;;;10.78;72.64;93604.81;5034419;28;20060;-76
2022/11/06 08:40:28;;;;;;;22.77;13.15;;;;;;;10.75;73.69;93621.44;5036807;28;20116;-76
2022/11/06 08:43:01;;;;;;;21.23;12.75;;;;;;;10.51;74.97;93594.59;5034109;28;20087;-77
2022/11/06 08:45:27;;;;;;;22.55;13.23;;;;;;;10.65;75.80;93629.75;5036223;28;20767;-77
2022/11/06 08:47:52;;;;;;;22.90;13.57;;;;;;;10.45;77.01;93606.50;5039384;28;20083;-78
2022/11/06 08:50:18;;;;;;;24.95;13.75;;;;;;;10.58;77.44;93645.41;5001403;28;20515;-76
2022/11/06 08:52:43;;;;;;;24.10;13.75;;;;;;;10.57;77.32;93649.16;5023335;28;20492;-76
2022/11/06 08:55:09;;;;;;;25.00;14.57;;;;;;;10.56;77.87;93635.06;5030792;28;20134;-77
2022/11/06 08:57:34;;;;;;;28.38;15.73;;;;;;;10.73;77.53;93648.34;5038556;28;20028;-77
2022/11/06 08:59:59;;;;;;;26.13;15.50;;;;;;;10.82;77.10;93656.28;5039960;28;20036;-77
2022/11/06 09:02:25;;;;;;;53.42;23.70;;;;;;;10.86;77.48;93645.78;5035711;28;20555;-77
2022/11/06 09:04:51;;;;;;;24.30;15.02;;;;;;;10.94;76.75;93652.97;5035121;28;20023;-77
2022/11/06 09:07:16;;;;;;;52.45;24.95;;;;;;;10.91;76.62;93633.09;5019584;28;20116;-76
2022/11/06 09:09:42;;;;;;;49.35;26.75;;;;;;;11.01;76.90;93648.72;5036899;28;20404;-77
2022/11/06 09:12:07;;;;;;;161.70;69.43;;;;;;;11.14;76.71;93642.41;5034772;28;20021;-76
2022/11/06 09:14:34;;;;;;;53.67;27.70;;;;;;;11.13;76.14;93642.72;5036551;28;20465;-77
2022/11/06 09:17:00;;;;;;;66.85;33.95;;;;;;;11.24;77.16;93651.13;5030656;28;20045;-77
2022/11/06 09:19:25;;;;;;;24.55;14.45;;;;;;;11.15;77.10;93651.94;5030180;28;20570;-76
2022/11/06 09:21:51;;;;;;;32.35;16.95;;;;;;;10.67;77.29;93592.97;5030461;28;20029;-78
2022/11/06 09:24:16;;;;;;;74.78;35.58;;;;;;;10.73;78.26;93621.75;5037792;28;20017;-77
2022/11/06 09:26:41;;;;;;;38.63;21.38;;;;;;;10.93;78.24;93654.84;5019388;28;20495;-77
2022/11/06 09:29:07;;;;;;;31.40;17.92;;;;;;;10.91;78.75;93649.06;5023081;28;20083;-76
2022/11/06 09:31:32;;;;;;;24.63;17.35;;;;;;;10.64;78.84;93634.28;5034772;28;20536;-76
2022/11/06 09:33:57;;;;;;;28.20;16.17;;;;;;;10.71;78.96;93647.09;5036687;28;20162;-77
2022/11/06 09:36:23;;;;;;;35.17;17.30;;;;;;;10.70;79.06;93634.91;5037493;28;20292;-76
2022/11/06 09:38:48;;;;;;;21.33;13.88;;;;;;;10.67;79.00;93646.16;5035062;28;20401;-76
2022/11/06 09:41:40;;;;;;;21.95;14.68;;;;;;;10.78;78.72;93644.72;5024116;28;20032;-77
2022/11/06 09:44:12;;;;;;;24.27;14.35;;;;;;;10.93;78.64;93646.88;5004733;28;20041;-78
2022/11/06 09:46:45;;;;;;;21.02;13.13;;;;;;;10.94;77.87;93653.75;5039703;28;20051;-75
2022/11/06 09:49:32;;;;;;;20.58;12.80;;;;;;;11.15;77.50;93662.59;5019065;28;20032;-75
2022/11/06 09:52:19;;;;;;;31.92;18.25;;;;;;;11.02;77.15;93626.31;5039972;28;20036;-76
2022/11/06 09:55:06;;;;;;;21.98;14.10;;;;;;;11.36;77.15;93667.19;5038703;28;20376;-75
2022/11/06 09:57:38;;;;;;;20.85;13.15;;;;;;;11.33;76.71;93670.50;5035611;28;20035;-75
2022/11/06 10:00:06;;;;;;;20.17;13.13;;;;;;;11.29;76.86;93653.63;5016916;28;20518;-76
2022/11/06 10:02:40;;;;;;;19.10;13.38;;;;;;;11.07;76.56;93636.78;5033851;28;20029;-75
2022/11/06 10:05:21;;;;;;;22.80;13.63;;;;;;;11.22;76.61;93663.97;5031697;28;20033;-75
2022/11/06 10:07:51;;;;;;;17.45;11.23;;;;;;;11.18;76.45;93655.84;5031847;28;20171;-74
2022/11/06 10:10:19;;;;;;;16.92;11.18;;;;;;;11.05;75.49;93644.31;5033187;28;20578;-76
2022/11/06 10:13:17;;;;;;;17.38;10.85;;;;;;;11.18;75.71;93651.31;5031071;28;20043;-75
2022/11/06 10:15:46;;;;;;;17.00;10.40;;;;;;;11.24;75.46;93651.91;5018400;28;20030;-75
2022/11/06 10:18:22;;;;;;;21.83;10.63;;;;;;;11.25;75.26;93658.03;5032068;28;20539;-77
2022/11/06 10:20:53;;;;;;;15.57;9.60;;;;;;;11.39;75.36;93653.25;5032929;28;20037;-78
2022/11/06 10:23:18;;;;;;;12.38;9.68;;;;;;;11.41;74.55;93667.00;5034162;28;20029;-77
2022/11/06 10:25:43;;;;;;;18.63;9.57;;;;;;;11.40;73.58;93665.44;5032639;28;20037;-76
2022/11/06 10:29:08;;;;;;;14.85;9.52;;;;;;;11.37;73.68;93660.78;5038851;28;20355;-77
2022/11/06 10:31:45;;;;;;;10.75;7.78;;;;;;;11.26;73.16;93667.56;4971022;28;20051;-76
2022/11/06 10:34:24;;;;;;;12.50;8.27;;;;;;;11.24;73.68;93659.13;5035844;28;20052;-76
2022/11/06 10:36:59;;;;;;;10.90;7.93;;;;;;;11.29;73.46;93664.28;5038866;28;20159;-76
2022/11/06 10:39:30;;;;;;;12.82;8.27;;;;;;;11.32;73.30;93647.66;5036185;28;20033;-76
2022/11/06 10:42:02;;;;;;;12.88;7.40;;;;;;;11.12;73.42;93610.00;5033733;28;20071;-77
2022/11/06 10:44:31;;;;;;;12.90;7.53;;;;;;;11.46;72.34;93653.53;5035186;28;20485;-76
2022/11/06 10:47:15;;;;;;;15.02;7.35;;;;;;;11.51;72.94;93661.34;5035129;28;20041;-77
2022/11/06 10:49:51;;;;;;;13.60;7.63;;;;;;;11.44;72.63;93667.16;5039442;28;20032;-76
2022/11/06 10:52:37;;;;;;;10.25;7.05;;;;;;;11.45;72.79;93657.28;5018036;28;20584;-77
2022/11/06 10:55:06;;;;;;;13.93;8.38;;;;;;;11.39;72.59;93669.22;5016784;28;20992;-77
2022/11/06 10:57:46;;;;;;;11.30;7.60;;;;;;;11.29;72.92;93658.94;5036948;28;20029;-76
2022/11/06 11:00:14;;;;;;;13.65;8.30;;;;;;;11.12;73.98;93665.91;5036757;28;20032;-76
2022/11/06 11:02:50;;;;;;;14.00;8.93;;;;;;;11.03;74.47;93637.75;5036147;28;20029;-77
2022/11/06 11:05:17;;;;;;;13.43;8.95;;;;;;;11.23;75.10;93666.31;5016218;28;20029;-76
2022/11/06 11:07:45;;;;;;;13.95;8.73;;;;;;;11.22;75.35;93671.97;5031071;28;20501;-77
2022/11/06 11:10:22;;;;;;;13.25;8.38;;;;;;;11.15;76.53;93670.56;5033768;28;20041;-75
2022/11/06 11:12:53;;;;;;;11.68;7.97;;;;;;;10.97;77.11;93645.13;5035477;28;20575;-77
2022/11/06 11:15:21;;;;;;;14.82;8.63;;;;;;;11.11;77.53;93674.97;5037467;28;20032;-76
2022/11/06 11:18:11;;;;;;;11.95;6.63;;;;;;;11.16;77.52;93666.03;5036293;28;20068;-77
2022/11/06 11:20:48;;;;;;;7.90;5.78;;;;;;;11.00;77.50;93668.44;5007606;28;20025;-76
2022/11/06 11:23:19;;;;;;;8.25;5.70;;;;;;;11.07;77.63;93671.41;5019968;28;20125;-76
2022/11/06 11:25:48;;;;;;;8.30;5.50;;;;;;;11.09;77.05;93671.88;5029975;28;20633;-77
2022/11/06 11:28:35;;;;;;;9.98;5.45;;;;;;;11.04;77.63;93669.38;5037933;28;20037;-76
2022/11/06 11:31:11;;;;;;;8.05;6.60;;;;;;;11.15;78.13;93669.78;5037685;28;20032;-76
2022/11/06 11:33:39;;;;;;;7.18;5.35;;;;;;;10.95;77.94;93620.75;5039811;28;20036;-76
2022/11/06 11:36:07;;;;;;;6.32;5.25;;;;;;;11.11;77.11;93653.69;5041670;28;20075;-76
2022/11/06 11:38:36;;;;;;;8.18;6.18;;;;;;;11.21;76.99;93667.72;5015894;28;20029;-77
2022/11/06 11:41:28;;;;;;;8.65;6.03;;;;;;;11.14;76.43;93652.28;5040518;28;20041;-77
2022/11/06 11:44:14;;;;;;;8.43;5.55;;;;;;;11.34;76.30;93664.09;5041541;28;20029;-77
2022/11/06 11:46:50;;;;;;;7.00;5.75;;;;;;;11.35;75.37;93658.44;5039510;28;20020;-77